createdAt,value
2022-11-17T00:00:43.251Z,8.15
2022-11-17T00:03:16.229Z,6.95
2022-11-17T00:08:12.094Z,8.68
2022-11-17T00:10:39.084Z,8.27
2022-11-17T00:13:24.934Z,6.72
2022-11-17T00:15:51.871Z,6.28
2022-11-17T00:18:37.337Z,6.63
2022-11-17T00:21:21.411Z,6.03
2022-11-17T00:23:50.339Z,7.40
2022-11-17T00:26:27.548Z,6.00
2022-11-17T00:28:57.498Z,6.50
2022-11-17T00:31:44.929Z,7.20
2022-11-17T00:34:17.136Z,6.22
2022-11-17T00:36:50.492Z,6.72
2022-11-17T00:39:22.533Z,6.93
2022-11-17T00:41:50.110Z,5.77
2022-11-17T00:44:17.636Z,8.82
2022-11-17T00:46:45.035Z,6.88
2022-11-17T00:49:13.085Z,7.85
2022-11-17T00:51:40.334Z,8.32
2022-11-17T00:54:11.566Z,7.95
2022-11-17T00:56:38.948Z,6.97
2022-11-17T00:59:05.999Z,7.43
2022-11-17T01:01:33.150Z,7.88
2022-11-17T01:04:04.374Z,7.10
2022-11-17T01:06:50.174Z,6.68
2022-11-17T01:09:23.286Z,7.40
2022-11-17T01:11:52.598Z,7.03
2022-11-17T01:14:28.387Z,7.15
2022-11-17T01:16:56.121Z,7.68
2022-11-17T01:19:24.833Z,7.93
2022-11-17T01:21:52.112Z,7.75
2022-11-17T01:24:19.129Z,7.55
2022-11-17T01:26:46.784Z,7.68
2022-11-17T01:29:18.865Z,9.30
2022-11-17T01:31:50.592Z,7.13
2022-11-17T01:34:17.973Z,8.38
2022-11-17T01:37:03.776Z,9.40
2022-11-17T01:39:32.159Z,9.50
2022-11-17T01:42:05.277Z,9.00
2022-11-17T01:44:55.003Z,7.78
2022-11-17T01:47:55.220Z,8.77
2022-11-17T01:50:41.578Z,8.38
2022-11-17T01:56:11.109Z,9.57
2022-11-17T01:58:45.706Z,9.07
2022-11-17T02:01:12.772Z,8.40
2022-11-17T02:03:41.570Z,9.65
2022-11-17T02:06:17.156Z,9.25
2022-11-17T02:08:47.078Z,9.02
2022-11-17T02:11:19.530Z,9.88
2022-11-17T02:13:48.180Z,8.70
2022-11-17T02:16:17.180Z,7.90
2022-11-17T02:18:46.411Z,7.85
2022-11-17T02:21:56.428Z,9.02
2022-11-17T02:24:38.328Z,8.82
2022-11-17T02:27:32.883Z,7.70
2022-11-17T02:30:12.326Z,9.88
2022-11-17T02:32:52.523Z,8.15
2022-11-17T02:35:54.685Z,7.68
2022-11-17T02:38:39.177Z,7.80
2022-11-17T02:41:34.712Z,7.95
2022-11-17T02:55:35.803Z,9.80
2022-11-17T02:58:02.722Z,8.93
2022-11-17T03:00:35.048Z,8.30
2022-11-17T03:03:45.291Z,10.13
2022-11-17T03:06:30.229Z,8.75
2022-11-17T03:09:18.668Z,8.27
2022-11-17T03:11:57.423Z,7.75
2022-11-17T03:15:15.324Z,9.45
2022-11-17T03:18:05.792Z,8.82
2022-11-17T03:20:54.027Z,9.00
2022-11-17T03:23:49.864Z,10.43
2022-11-17T03:26:31.154Z,12.55
2022-11-17T03:29:02.070Z,9.38
2022-11-17T03:31:32.813Z,9.68
2022-11-17T03:34:03.568Z,9.70
2022-11-17T03:36:40.029Z,10.23
2022-11-17T03:39:24.019Z,9.30
2022-11-17T03:42:01.985Z,9.95
2022-11-17T03:44:34.937Z,9.25
2022-11-17T03:49:52.762Z,9.07
2022-11-17T03:52:20.712Z,9.25
2022-11-17T03:54:48.182Z,9.80
2022-11-17T03:57:34.930Z,9.20
2022-11-17T04:00:10.962Z,10.43
2022-11-17T04:02:43.113Z,9.30
2022-11-17T04:05:12.011Z,9.20
2022-11-17T04:07:46.877Z,8.98
2022-11-17T04:10:19.991Z,10.02
2022-11-17T04:13:09.043Z,8.70
2022-11-17T04:15:55.094Z,9.25
2022-11-17T04:18:23.548Z,9.05
2022-11-17T04:20:56.814Z,9.85
2022-11-17T04:23:25.821Z,8.45
2022-11-17T04:26:14.634Z,10.50
2022-11-17T04:28:47.426Z,10.77
2022-11-17T04:31:28.216Z,9.13
2022-11-17T04:34:01.303Z,8.93
2022-11-17T04:36:32.521Z,8.52
2022-11-17T04:39:01.037Z,8.38
2022-11-17T04:41:48.842Z,8.10
2022-11-17T04:44:17.880Z,7.97
2022-11-17T04:46:48.873Z,8.50
2022-11-17T04:49:18.360Z,13.18
2022-11-17T04:51:46.568Z,10.63
2022-11-17T04:54:17.015Z,10.63
2022-11-17T04:56:45.093Z,8.95
2022-11-17T04:59:12.341Z,6.97
2022-11-17T05:01:39.346Z,6.93
2022-11-17T05:04:35.678Z,6.10
2022-11-17T05:07:05.381Z,7.57
2022-11-17T05:09:32.516Z,9.52
2022-11-17T05:12:18.405Z,7.20
2022-11-17T05:14:47.659Z,7.05
2022-11-17T05:17:14.609Z,6.72
2022-11-17T05:19:47.536Z,6.00
2022-11-17T05:25:04.205Z,5.85
2022-11-17T05:27:31.268Z,5.85
2022-11-17T05:29:58.230Z,5.90
2022-11-17T05:32:25.253Z,5.43
2022-11-17T05:34:52.197Z,5.47
2022-11-17T05:37:19.224Z,5.68
2022-11-17T05:39:46.239Z,6.22
2022-11-17T05:42:13.193Z,6.38
2022-11-17T05:44:40.203Z,7.43
2022-11-17T05:47:07.364Z,5.35
2022-11-17T05:49:34.325Z,6.38
2022-11-17T05:52:01.272Z,5.78
2022-11-17T05:54:28.240Z,6.53
2022-11-17T05:57:09.562Z,6.82
2022-11-17T05:59:55.147Z,6.15
2022-11-17T06:02:33.855Z,5.80
2022-11-17T06:05:01.996Z,6.72
2022-11-17T06:07:29.139Z,5.45
2022-11-17T06:09:57.221Z,7.00
2022-11-17T06:12:24.259Z,5.18
2022-11-17T06:14:51.229Z,6.05
2022-11-17T06:17:35.670Z,6.05
2022-11-17T06:20:28.114Z,5.85
2022-11-17T06:23:00.378Z,6.20
2022-11-17T06:25:29.123Z,6.38
2022-11-17T06:27:57.887Z,6.38
2022-11-17T06:30:24.826Z,6.05
2022-11-17T06:32:53.534Z,5.90
2022-11-17T06:35:20.681Z,7.47
2022-11-17T06:37:47.624Z,5.90
2022-11-17T06:40:15.370Z,7.00
2022-11-17T06:43:01.513Z,6.70
2022-11-17T06:45:28.461Z,6.30
2022-11-17T06:47:55.593Z,6.57
2022-11-17T06:50:22.680Z,7.03
2022-11-17T06:52:49.546Z,7.43
2022-11-17T06:55:16.596Z,7.57
2022-11-17T06:57:46.546Z,7.28
2022-11-17T07:00:16.427Z,7.47
2022-11-17T07:02:43.595Z,6.68
2022-11-17T07:05:10.526Z,8.43
2022-11-17T07:07:37.494Z,7.22
2022-11-17T07:10:04.765Z,8.68
2022-11-17T07:12:33.285Z,8.52
2022-11-17T07:15:00.248Z,7.75
2022-11-17T07:17:27.346Z,8.45
2022-11-17T07:19:54.949Z,8.63
2022-11-17T07:22:21.881Z,9.75
2022-11-17T07:24:48.776Z,9.27
2022-11-17T07:27:15.739Z,10.75
2022-11-17T07:29:42.696Z,8.07
2022-11-17T07:32:13.861Z,8.20
2022-11-17T07:34:44.276Z,8.65
2022-11-17T07:37:11.219Z,7.95
2022-11-17T07:39:38.168Z,9.35
2022-11-17T07:42:05.141Z,7.88
2022-11-17T07:44:32.260Z,8.68
2022-11-17T07:47:02.078Z,7.55
2022-11-17T07:49:29.464Z,9.00
2022-11-17T07:51:56.426Z,8.43
2022-11-17T07:54:23.385Z,7.18
2022-11-17T07:56:50.402Z,7.75
2022-11-17T07:59:21.366Z,7.28
2022-11-17T08:01:48.678Z,8.40
2022-11-17T08:04:16.018Z,7.78
2022-11-17T08:06:42.927Z,6.90
2022-11-17T08:09:10.748Z,9.13
2022-11-17T08:11:37.703Z,8.50
2022-11-17T08:14:04.691Z,9.80
2022-11-17T08:16:32.137Z,9.20
2022-11-17T08:18:59.635Z,7.97
2022-11-17T08:21:26.625Z,9.23
2022-11-17T08:23:55.140Z,8.60
2022-11-17T08:26:25.315Z,7.80
2022-11-17T08:28:57.884Z,8.25
2022-11-17T08:31:25.527Z,8.45
2022-11-17T08:33:52.462Z,9.35
2022-11-17T08:36:19.343Z,7.28
2022-11-17T08:38:46.293Z,8.45
2022-11-17T08:41:13.252Z,9.07
2022-11-17T08:43:40.143Z,8.48
2022-11-17T08:46:12.910Z,9.88
2022-11-17T08:48:40.712Z,9.40
2022-11-17T08:51:09.524Z,10.68
2022-11-17T08:53:39.389Z,9.57
2022-11-17T08:56:12.384Z,10.00
2022-11-17T09:01:15.527Z,9.60
2022-11-17T09:03:44.887Z,10.35
2022-11-17T09:06:13.605Z,9.80
2022-11-17T09:08:48.121Z,9.57
2022-11-17T09:11:16.726Z,10.27
2022-11-17T09:13:45.660Z,10.75
2022-11-17T09:16:12.850Z,9.73
2022-11-17T09:18:41.470Z,11.70
2022-11-17T09:21:15.626Z,12.60
2022-11-17T09:23:43.637Z,10.75
2022-11-17T09:26:14.738Z,11.95
2022-11-17T09:28:42.731Z,9.95
2022-11-17T09:31:16.396Z,9.55
2022-11-17T09:33:44.619Z,11.52
2022-11-17T09:36:14.872Z,10.75
2022-11-17T09:38:42.455Z,9.63
2022-11-17T09:41:48.111Z,11.13
2022-11-17T09:44:34.497Z,11.40
2022-11-17T09:47:35.989Z,10.27
2022-11-17T09:50:24.576Z,11.23
2022-11-17T09:53:00.511Z,14.00
2022-11-17T09:55:40.574Z,11.63
2022-11-17T09:58:14.749Z,13.02
2022-11-17T10:00:48.774Z,13.48
2022-11-17T10:03:42.056Z,11.82
2022-11-17T10:06:19.238Z,11.93
2022-11-17T10:09:01.320Z,12.13
2022-11-17T10:11:37.245Z,12.07
2022-11-17T10:14:13.618Z,14.52
2022-11-17T10:16:59.355Z,12.32
2022-11-17T10:19:34.513Z,13.95
2022-11-17T10:22:05.303Z,12.77
2022-11-17T10:24:35.139Z,14.05
2022-11-17T10:27:05.439Z,16.50
2022-11-17T10:29:32.925Z,13.50
2022-11-17T10:32:05.687Z,12.57
2022-11-17T10:34:41.175Z,13.95
2022-11-17T10:37:32.034Z,15.18
2022-11-17T10:40:39.871Z,15.90
2022-11-17T10:43:12.806Z,12.45
2022-11-17T10:48:33.532Z,11.52
2022-11-17T10:51:23.250Z,11.98
2022-11-17T10:54:16.089Z,11.00
2022-11-17T10:57:00.073Z,12.15
2022-11-17T10:59:44.319Z,11.43
2022-11-17T11:02:37.058Z,9.80
2022-11-17T11:05:18.007Z,12.02
2022-11-17T11:07:45.615Z,10.45
2022-11-17T11:10:34.502Z,11.48
2022-11-17T11:13:27.348Z,10.60
2022-11-17T11:15:54.443Z,10.07
2022-11-17T11:18:22.103Z,12.05
2022-11-17T11:21:23.271Z,9.93
2022-11-17T11:24:11.111Z,10.40
2022-11-17T11:27:23.141Z,12.75
2022-11-17T11:30:25.483Z,10.95
2022-11-17T11:33:37.915Z,10.98
2022-11-17T11:36:42.641Z,15.10
2022-11-17T11:39:52.993Z,12.52
2022-11-17T11:42:55.962Z,11.75
2022-11-17T11:45:42.745Z,10.68
2022-11-17T11:48:33.724Z,10.93
2022-11-17T11:51:29.525Z,10.52
2022-11-17T11:54:10.173Z,13.35
2022-11-17T11:56:44.207Z,11.98
2022-11-17T12:00:00.891Z,11.27
2022-11-17T12:02:51.638Z,12.15
2022-11-17T12:05:54.603Z,10.95
2022-11-17T12:08:35.387Z,12.00
2022-11-17T12:11:34.787Z,11.13
2022-11-17T12:14:05.888Z,11.27
2022-11-17T12:16:36.420Z,11.32
2022-11-17T12:20:09.173Z,10.77
2022-11-17T12:25:21.989Z,10.20
2022-11-17T12:27:55.179Z,11.35
2022-11-17T12:30:31.177Z,11.57
2022-11-17T12:33:00.657Z,10.27
2022-11-17T12:35:37.256Z,10.85
2022-11-17T12:38:19.926Z,10.43
2022-11-17T12:40:51.598Z,10.55
2022-11-17T12:43:26.091Z,11.25
2022-11-17T12:45:55.611Z,11.63
2022-11-17T12:48:36.145Z,11.85
2022-11-17T12:51:27.709Z,14.20
2022-11-17T12:54:22.559Z,14.57
2022-11-17T12:57:34.483Z,12.40
2022-11-17T13:00:07.484Z,11.10
2022-11-17T13:03:22.067Z,12.60
2022-11-17T13:06:34.369Z,12.07
2022-11-17T13:09:06.082Z,12.18
2022-11-17T13:11:33.979Z,11.50
2022-11-17T13:14:14.617Z,14.07
2022-11-17T13:16:51.162Z,12.93
2022-11-17T13:19:32.833Z,12.40
2022-11-17T13:22:05.766Z,13.35
2022-11-17T13:24:39.800Z,13.32
2022-11-17T13:27:38.020Z,12.07
2022-11-17T13:30:31.498Z,15.07
2022-11-17T13:35:32.348Z,14.38
2022-11-17T13:38:11.566Z,14.50
2022-11-17T13:40:42.373Z,14.15
2022-11-17T13:43:18.333Z,14.45
2022-11-17T13:45:47.173Z,17.00
2022-11-17T13:48:37.082Z,15.00
2022-11-17T13:51:35.047Z,15.10
2022-11-17T13:54:04.740Z,16.55
2022-11-17T13:56:40.811Z,13.45
2022-11-17T13:59:39.001Z,12.07
2022-11-17T14:02:20.501Z,13.52
2022-11-17T14:05:10.695Z,13.90
2022-11-17T14:07:39.420Z,12.98
2022-11-17T14:10:21.626Z,12.63
2022-11-17T14:13:20.512Z,12.98
2022-11-17T14:15:57.818Z,16.05
2022-11-17T14:18:37.328Z,22.30
2022-11-17T14:21:17.237Z,24.13
2022-11-17T14:23:45.210Z,16.70
2022-11-17T14:26:24.895Z,18.15
2022-11-17T14:28:53.064Z,17.83
2022-11-17T14:31:20.224Z,21.25
2022-11-17T14:33:47.271Z,18.83
2022-11-17T14:36:17.961Z,17.67
2022-11-17T14:38:46.616Z,21.25
2022-11-17T14:41:18.663Z,20.33
2022-11-17T14:43:46.622Z,21.83
2022-11-17T14:46:26.816Z,19.92
2022-11-17T14:48:55.496Z,18.05
2022-11-17T14:51:22.918Z,19.73
2022-11-17T14:53:50.638Z,21.98
2022-11-17T14:56:21.192Z,27.75
2022-11-17T14:58:54.186Z,26.15
2022-11-17T15:04:15.330Z,32.40
2022-11-17T15:06:48.395Z,23.92
2022-11-17T15:09:16.466Z,26.90
2022-11-17T15:11:43.596Z,29.40
2022-11-17T15:14:11.548Z,23.50
2022-11-17T15:16:38.528Z,23.17
2022-11-17T15:19:06.731Z,25.40
2022-11-17T15:21:33.940Z,28.38
2022-11-17T15:24:03.828Z,23.77
2022-11-17T15:26:31.385Z,23.80
2022-11-17T15:28:58.673Z,19.80
2022-11-17T15:31:25.869Z,20.33
2022-11-17T15:33:52.999Z,20.30
2022-11-17T15:36:23.042Z,24.10
2022-11-17T15:38:50.414Z,23.90
2022-11-17T15:41:17.456Z,26.25
2022-11-17T15:43:45.640Z,26.00
2022-11-17T15:46:18.227Z,24.75
2022-11-17T15:48:49.118Z,25.95
2022-11-17T15:51:19.665Z,28.63
2022-11-17T15:53:48.988Z,27.77
2022-11-17T16:07:56.546Z,33.22
2022-11-17T16:10:23.508Z,28.95
2022-11-17T16:12:51.461Z,27.00
2022-11-17T16:15:18.659Z,25.67
2022-11-17T16:17:45.745Z,25.55
2022-11-17T16:20:13.009Z,27.30
2022-11-17T16:22:40.102Z,24.25
2022-11-17T16:25:10.583Z,22.58
2022-11-17T16:27:37.669Z,23.33
2022-11-17T16:30:05.401Z,23.00
2022-11-17T16:32:32.521Z,21.33
2022-11-17T16:34:59.754Z,25.42
2022-11-17T16:37:26.685Z,28.13
2022-11-17T16:39:55.105Z,24.88
2022-11-17T16:42:22.086Z,27.58
2022-11-17T16:44:49.115Z,32.15
2022-11-17T16:47:16.191Z,30.10
2022-11-17T16:49:45.733Z,28.80
2022-11-17T16:54:43.022Z,29.92
2022-11-17T16:57:10.144Z,33.70
2022-11-17T16:59:37.182Z,32.83
2022-11-17T17:02:04.276Z,37.35
2022-11-17T17:04:31.301Z,35.72
2022-11-17T17:06:58.621Z,35.10
2022-11-17T17:09:28.010Z,33.58
2022-11-17T17:11:55.389Z,31.52
2022-11-17T17:14:22.615Z,35.45
2022-11-17T17:16:49.994Z,41.70
2022-11-17T17:19:17.116Z,46.70
2022-11-17T17:21:45.505Z,42.38
2022-11-17T17:24:13.024Z,40.90
2022-11-17T17:26:40.689Z,35.10
2022-11-17T17:29:08.495Z,36.70
2022-11-17T17:31:39.246Z,35.08
2022-11-17T17:34:07.814Z,32.78
2022-11-17T17:36:37.217Z,32.40
2022-11-17T17:39:05.759Z,30.42
2022-11-17T17:41:39.258Z,30.77
2022-11-17T17:44:11.267Z,36.72
2022-11-17T17:46:39.028Z,39.42
2022-11-17T17:49:07.168Z,39.38
2022-11-17T17:51:39.982Z,32.70
2022-11-17T17:54:09.981Z,26.67
2022-11-17T17:56:36.926Z,37.22
2022-11-17T17:59:03.949Z,31.70
2022-11-17T18:01:36.925Z,34.80
2022-11-17T18:06:45.963Z,32.65
2022-11-17T18:09:15.473Z,33.08
2022-11-17T18:11:46.121Z,36.80
2022-11-17T18:14:13.597Z,37.65
2022-11-17T18:16:41.042Z,37.80
2022-11-17T18:19:09.800Z,35.15
2022-11-17T18:21:37.136Z,36.33
2022-11-17T18:24:04.845Z,44.63
2022-11-17T18:26:37.175Z,56.22
2022-11-17T18:29:16.661Z,53.65
2022-11-17T18:31:47.233Z,49.63
2022-11-17T18:34:18.954Z,44.70
2022-11-17T18:36:46.182Z,43.90
2022-11-17T18:39:17.782Z,46.63
2022-11-17T18:41:45.650Z,35.43
2022-11-17T18:44:15.153Z,47.75
2022-11-17T18:46:42.164Z,38.05
2022-11-17T18:49:09.774Z,41.63
2022-11-17T18:51:36.772Z,47.42
2022-11-17T18:54:04.838Z,60.60
2022-11-17T18:56:35.596Z,66.63
2022-11-17T18:59:11.389Z,60.65
2022-11-17T19:01:41.264Z,57.08
2022-11-17T19:04:08.788Z,48.45
2022-11-17T19:06:36.496Z,55.42
2022-11-17T19:09:06.653Z,58.42
2022-11-17T19:11:34.654Z,108.53
2022-11-17T19:14:04.271Z,93.18
2022-11-17T19:16:32.615Z,68.03
2022-11-17T19:19:00.091Z,102.43
2022-11-17T19:21:35.949Z,60.00
2022-11-17T19:24:04.520Z,44.50
2022-11-17T19:26:35.797Z,43.53
2022-11-17T19:29:15.679Z,44.03
2022-11-17T19:31:43.907Z,49.53
2022-11-17T19:34:11.385Z,48.60
2022-11-17T19:36:38.403Z,50.00
2022-11-17T19:39:05.413Z,51.25
2022-11-17T19:41:45.143Z,67.50
2022-11-17T19:44:12.449Z,49.35
2022-11-17T19:46:39.501Z,64.85
2022-11-17T19:49:08.139Z,63.78
2022-11-17T19:51:37.067Z,47.60
2022-11-17T19:54:09.469Z,45.38
2022-11-17T19:56:38.311Z,39.65
2022-11-17T19:59:07.659Z,37.15
2022-11-17T20:01:36.854Z,31.48
2022-11-17T20:04:04.600Z,32.70
2022-11-17T20:06:37.586Z,35.55
2022-11-17T20:11:36.944Z,31.08
2022-11-17T20:14:04.385Z,30.30
2022-11-17T20:16:32.257Z,30.52
2022-11-17T20:19:02.906Z,29.13
2022-11-17T20:21:31.189Z,28.10
2022-11-17T20:23:59.211Z,29.67
2022-11-17T20:26:30.877Z,30.17
2022-11-17T20:28:59.535Z,30.20
2022-11-17T20:31:32.876Z,32.72
2022-11-17T20:34:01.659Z,31.25
2022-11-17T20:36:31.653Z,30.65
2022-11-17T20:39:03.104Z,27.90
2022-11-17T20:41:30.826Z,28.98
2022-11-17T20:44:00.201Z,28.52
2022-11-17T20:46:27.571Z,26.90
2022-11-17T20:48:54.694Z,26.92
2022-11-17T20:51:24.466Z,20.33
2022-11-17T20:53:53.678Z,21.45
2022-11-17T20:56:21.187Z,20.88
2022-11-17T20:58:49.013Z,19.77
2022-11-17T21:01:22.587Z,22.60
2022-11-17T21:03:49.959Z,22.55
2022-11-17T21:06:18.039Z,23.33
2022-11-17T21:08:46.591Z,24.90
2022-11-17T21:11:35.743Z,25.42
2022-11-17T21:14:05.551Z,24.85
2022-11-17T21:16:34.236Z,24.30
2022-11-17T21:19:01.478Z,24.15
2022-11-17T21:21:28.695Z,25.02
2022-11-17T21:23:56.229Z,25.30
2022-11-17T21:26:23.702Z,25.85
2022-11-17T21:28:54.075Z,22.67
2022-11-17T21:31:24.869Z,24.65
2022-11-17T21:33:57.967Z,24.02
2022-11-17T21:36:27.434Z,24.35
2022-11-17T21:38:54.963Z,25.25
2022-11-17T21:41:28.660Z,25.75
2022-11-17T21:44:00.060Z,24.23
2022-11-17T21:46:31.110Z,24.35
2022-11-17T21:48:59.769Z,24.20
2022-11-17T21:51:33.487Z,24.25
2022-11-17T21:54:04.403Z,26.05
2022-11-17T21:56:32.234Z,25.17
2022-11-17T21:59:06.454Z,24.52
2022-11-17T22:01:34.894Z,21.42
2022-11-17T22:04:02.293Z,23.17
2022-11-17T22:06:30.329Z,21.92
2022-11-17T22:08:59.076Z,21.80
2022-11-17T22:11:36.138Z,21.77
2022-11-17T22:14:20.074Z,22.88
2022-11-17T22:16:53.248Z,20.35
2022-11-17T22:19:24.417Z,23.13
2022-11-17T22:21:54.285Z,24.38
2022-11-17T22:24:21.719Z,24.80
2022-11-17T22:26:48.925Z,25.33
2022-11-17T22:29:19.973Z,24.90
2022-11-17T22:31:48.926Z,91.70
2022-11-17T22:34:17.423Z,106.60
2022-11-17T22:36:44.431Z,114.90
2022-11-17T22:39:11.432Z,97.18
2022-11-17T22:41:38.516Z,90.47
2022-11-17T22:44:06.369Z,39.35
2022-11-17T22:46:34.965Z,27.67
2022-11-17T22:49:02.068Z,21.80
2022-11-17T22:51:47.691Z,24.48
2022-11-17T22:54:14.794Z,21.52
2022-11-17T22:56:41.811Z,24.73
2022-11-17T22:59:09.649Z,26.05
2022-11-17T23:01:36.740Z,24.85
2022-11-17T23:04:04.746Z,25.02
2022-11-17T23:06:31.795Z,24.13
2022-11-17T23:08:59.140Z,24.30
2022-11-17T23:11:37.888Z,26.65
2022-11-17T23:14:12.186Z,24.45
2022-11-17T23:16:40.157Z,23.02
2022-11-17T23:19:10.271Z,22.95
2022-11-17T23:21:37.338Z,20.77
2022-11-17T23:24:05.040Z,21.17
2022-11-17T23:26:32.042Z,14.45
2022-11-17T23:28:59.112Z,14.40
2022-11-17T23:31:27.898Z,14.50
2022-11-17T23:33:55.060Z,15.80
2022-11-17T23:36:23.183Z,15.18
2022-11-17T23:38:51.595Z,15.45
2022-11-17T23:41:22.884Z,12.35
2022-11-17T23:43:52.417Z,16.40
2022-11-17T23:46:23.749Z,13.32
2022-11-17T23:48:51.027Z,14.07
2022-11-17T23:51:23.674Z,16.33
2022-11-17T23:53:51.245Z,16.02
2022-11-17T23:56:20.654Z,13.55
2022-11-17T23:58:48.323Z,14.77
